Time;durP1;ratioP1;P1;durP2;ratioP2;P2;SDS_P1;SDS_P2;PMS_P1;PMS_P2;Temp;Humidity;BMP_temperature;BMP_pressure;BME280_temperature;BME280_humidity;BME280_pressure;Samples;Min_cycle;Max_cycle;Signal;HPM_P1;HPM_P2
2022/05/24 00:00:12;;;;;;;5.43;2.72;;;;;;;;;;4953509;28;20045;-68
2022/05/24 00:02:39;;;;;;;6.60;3.20;;;;;;;;;;4950304;28;20040;-68
2022/05/24 00:05:05;;;;;;;8.25;3.58;;;;;;;;;;4945034;28;20101;-68
2022/05/24 00:07:31;;;;;;;3.83;2.95;;;;;;;;;;4944220;28;20031;-68
2022/05/24 00:09:56;;;;;;;3.15;2.58;;;;;;;;;;4945141;28;20477;-68
2022/05/24 00:12:23;;;;;;;4.68;2.90;;;;;;;;;;4928042;29;20085;-68
2022/05/24 00:17:33;;;;;;;6.93;2.80;;;;;;;;;;4946943;28;20039;-68
2022/05/24 00:19:58;;;;;;;3.65;3.13;;;;;;;;;;4947056;28;20039;-68
2022/05/24 00:22:24;;;;;;;3.63;2.92;;;;;;;;;;4944549;28;20070;-68
2022/05/24 00:24:49;;;;;;;5.88;3.05;;;;;;;;;;4944701;28;20050;-68
2022/05/24 00:27:15;;;;;;;7.13;3.65;;;;;;;;;;4944196;28;20071;-68
2022/05/24 00:29:40;;;;;;;6.78;3.65;;;;;;;;;;4949104;28;20039;-68
2022/05/24 00:32:06;;;;;;;4.28;3.33;;;;;;;;;;4950291;28;20039;-68
2022/05/24 00:34:32;;;;;;;6.30;3.63;;;;;;;;;;4944657;28;20109;-68
2022/05/24 00:36:57;;;;;;;6.35;3.20;;;;;;;;;;4944179;28;20496;-68
2022/05/24 00:39:23;;;;;;;5.43;3.38;;;;;;;;;;4943402;28;20039;-68
2022/05/24 00:42:03;;;;;;;8.05;2.60;;;;;;;;;;4944739;28;20039;-68
2022/05/24 00:45:08;;;;;;;3.78;1.80;;;;;;;;;;4944201;28;20035;-68
2022/05/24 00:47:41;;;;;;;4.30;2.10;;;;;;;;;;4944059;28;20074;-68
2022/05/24 00:50:17;;;;;;;10.45;1.70;;;;;;;;;;4944333;28;20039;-68
2022/05/24 00:52:54;;;;;;;4.13;2.08;;;;;;;;;;4943871;28;20070;-68
2022/05/24 00:55:22;;;;;;;6.72;2.45;;;;;;;;;;4943970;28;20094;-68
2022/05/24 00:58:17;;;;;;;3.90;2.47;;;;;;;;;;4926562;28;20035;-68
2022/05/24 01:00:42;;;;;;;4.22;1.90;;;;;;;;;;4949121;28;20057;-68
2022/05/24 01:03:10;;;;;;;3.97;1.75;;;;;;;;;;4949266;28;20548;-68
2022/05/24 01:05:36;;;;;;;3.85;2.00;;;;;;;;;;4943899;28;20503;-68
2022/05/24 01:08:01;;;;;;;3.28;2.13;;;;;;;;;;4943518;28;20043;-68
2022/05/24 01:10:56;;;;;;;7.00;2.70;;;;;;;;;;4944101;28;20039;-68
2022/05/24 01:13:26;;;;;;;6.75;2.33;;;;;;;;;;4923808;28;20130;-68
2022/05/24 01:15:52;;;;;;;4.35;2.90;;;;;;;;;;4949743;28;20088;-68
2022/05/24 01:18:19;;;;;;;8.30;2.63;;;;;;;;;;4942992;28;20842;-68
2022/05/24 01:20:53;;;;;;;2.75;2.10;;;;;;;;;;4943888;28;20031;-68
2022/05/24 01:23:39;;;;;;;7.95;2.58;;;;;;;;;;4942727;28;20050;-68
2022/05/24 01:26:17;;;;;;;11.85;2.45;;;;;;;;;;4951278;28;20489;-68
2022/05/24 01:28:51;;;;;;;5.97;2.45;;;;;;;;;;4943288;28;20035;-68
2022/05/24 01:31:18;;;;;;;7.10;2.53;;;;;;;;;;4949224;28;20117;-68
2022/05/24 01:36:31;;;;;;;4.80;2.28;;;;;;;;;;4947941;28;20301;-68
2022/05/24 01:39:04;;;;;;;6.32;2.00;;;;;;;;;;4943052;28;20042;-68
2022/05/24 01:41:38;;;;;;;4.45;2.25;;;;;;;;;;4946746;28;20532;-68
2022/05/24 01:44:05;;;;;;;4.20;2.03;;;;;;;;;;4943349;28;20500;-68
2022/05/24 01:46:36;;;;;;;3.33;1.88;;;;;;;;;;4942966;28;20448;-68
2022/05/24 01:49:07;;;;;;;3.70;2.03;;;;;;;;;;4942428;28;20104;-68
2022/05/24 01:51:38;;;;;;;3.85;1.77;;;;;;;;;;4943510;28;20057;-68
2022/05/24 01:54:05;;;;;;;1.77;1.40;;;;;;;;;;4948442;28;20055;-68
2022/05/24 01:56:42;;;;;;;2.20;1.75;;;;;;;;;;4946756;28;20074;-68
2022/05/24 01:59:09;;;;;;;6.32;2.13;;;;;;;;;;4943599;28;20043;-68
2022/05/24 02:01:39;;;;;;;4.20;1.90;;;;;;;;;;4947217;28;20035;-68
2022/05/24 02:04:05;;;;;;;3.97;1.90;;;;;;;;;;4925759;28;20031;-68
2022/05/24 02:06:31;;;;;;;6.32;1.90;;;;;;;;;;4949319;28;20102;-68
2022/05/24 02:08:56;;;;;;;3.55;2.00;;;;;;;;;;4941706;28;20068;-68
2022/05/24 02:11:28;;;;;;;4.70;2.03;;;;;;;;;;4943433;28;20039;-68
2022/05/24 02:14:20;;;;;;;5.63;2.00;;;;;;;;;;4943222;28;20043;-68
2022/05/24 02:16:52;;;;;;;4.32;2.20;;;;;;;;;;4942228;28;20059;-68
2022/05/24 02:19:19;;;;;;;6.05;1.75;;;;;;;;;;4947216;28;20500;-68
2022/05/24 02:21:50;;;;;;;3.67;1.90;;;;;;;;;;4932668;28;20098;-67
2022/05/24 02:24:21;;;;;;;5.80;1.98;;;;;;;;;;4910576;28;20066;-68
2022/05/24 02:26:49;;;;;;;5.35;1.98;;;;;;;;;;4943191;28;20036;-68
2022/05/24 02:29:17;;;;;;;2.92;2.10;;;;;;;;;;4931144;28;20887;-68
2022/05/24 02:31:43;;;;;;;6.30;2.60;;;;;;;;;;4955447;28;20043;-68
2022/05/24 02:34:09;;;;;;;4.80;2.20;;;;;;;;;;4943874;28;20147;-68
2022/05/24 02:36:35;;;;;;;5.70;2.13;;;;;;;;;;4942692;28;20043;-68
2022/05/24 02:39:03;;;;;;;3.22;2.10;;;;;;;;;;4942553;28;20055;-68
2022/05/24 02:41:31;;;;;;;6.85;2.10;;;;;;;;;;4942511;28;20039;-68
2022/05/24 02:43:59;;;;;;;5.20;2.00;;;;;;;;;;4942716;28;20063;-68
2022/05/24 02:46:25;;;;;;;3.85;2.00;;;;;;;;;;4948819;28;20050;-68
2022/05/24 02:48:50;;;;;;;6.90;2.53;;;;;;;;;;4942438;28;20046;-68
2022/05/24 02:51:16;;;;;;;2.20;2.00;;;;;;;;;;4941945;28;20299;-68
2022/05/24 02:53:44;;;;;;;6.63;2.20;;;;;;;;;;4942841;28;20095;-68
2022/05/24 02:56:09;;;;;;;6.20;2.83;;;;;;;;;;4942526;28;20182;-68
2022/05/24 02:58:35;;;;;;;7.53;2.88;;;;;;;;;;4942248;28;20491;-68
2022/05/24 03:01:01;;;;;;;7.40;2.30;;;;;;;;;;4951311;28;20043;-68
2022/05/24 03:03:26;;;;;;;4.55;2.60;;;;;;;;;;4950295;28;20038;-69
2022/05/24 03:05:52;;;;;;;7.20;2.35;;;;;;;;;;4945892;28;20085;-68
2022/05/24 03:11:02;;;;;;;5.63;2.28;;;;;;;;;;4946345;28;20039;-68
2022/05/24 03:16:13;;;;;;;4.20;2.33;;;;;;;;;;4951423;28;20039;-68
2022/05/24 03:18:40;;;;;;;3.35;2.47;;;;;;;;;;4945753;28;20090;-68
2022/05/24 03:21:06;;;;;;;6.00;2.38;;;;;;;;;;4944909;28;20118;-68
2022/05/24 03:23:31;;;;;;;4.18;2.15;;;;;;;;;;4947410;28;20122;-68
2022/05/24 03:25:57;;;;;;;6.05;2.47;;;;;;;;;;4949182;28;20043;-68
2022/05/24 03:28:22;;;;;;;3.42;2.20;;;;;;;;;;4945593;28;20045;-68
2022/05/24 03:30:48;;;;;;;3.72;2.22;;;;;;;;;;4951060;28;20039;-68
2022/05/24 03:33:14;;;;;;;4.50;2.38;;;;;;;;;;4946106;28;20492;-68
2022/05/24 03:35:40;;;;;;;6.25;2.42;;;;;;;;;;4948127;28;20062;-68
2022/05/24 03:38:06;;;;;;;2.30;2.10;;;;;;;;;;4950019;28;20050;-68
2022/05/24 03:40:32;;;;;;;5.65;2.03;;;;;;;;;;4951433;28;20055;-68
2022/05/24 03:42:58;;;;;;;4.78;2.10;;;;;;;;;;4945657;28;20085;-68
2022/05/24 03:45:24;;;;;;;3.33;1.90;;;;;;;;;;4948333;28;20043;-68
2022/05/24 03:47:50;;;;;;;4.60;2.30;;;;;;;;;;4951995;28;20026;-68
2022/05/24 03:50:16;;;;;;;6.47;1.90;;;;;;;;;;4945932;28;20093;-68
2022/05/24 03:52:42;;;;;;;2.85;2.13;;;;;;;;;;4945428;28;20042;-68
2022/05/24 03:55:08;;;;;;;4.30;2.13;;;;;;;;;;4945153;28;20039;-68
2022/05/24 04:00:20;;;;;;;5.55;2.30;;;;;;;;;;4946952;28;20647;-68
2022/05/24 04:02:46;;;;;;;2.85;2.33;;;;;;;;;;4949145;28;20042;-68
2022/05/24 04:05:12;;;;;;;2.65;2.45;;;;;;;;;;4950312;28;20086;-68
2022/05/24 04:07:38;;;;;;;4.93;2.47;;;;;;;;;;4944464;28;20473;-68
2022/05/24 04:10:05;;;;;;;4.65;2.63;;;;;;;;;;4949800;28;20031;-68
2022/05/24 04:12:31;;;;;;;3.10;2.03;;;;;;;;;;4950906;28;20042;-68
2022/05/24 04:14:56;;;;;;;7.18;2.45;;;;;;;;;;4945045;28;20047;-68
2022/05/24 04:17:21;;;;;;;5.95;2.28;;;;;;;;;;4946032;28;20377;-68
2022/05/24 04:19:47;;;;;;;3.90;2.30;;;;;;;;;;4948922;28;20038;-69
2022/05/24 04:22:12;;;;;;;4.30;2.20;;;;;;;;;;4948984;28;20135;-69
2022/05/24 04:24:39;;;;;;;3.53;2.38;;;;;;;;;;4945107;28;20408;-69
2022/05/24 04:27:06;;;;;;;5.40;2.40;;;;;;;;;;4946056;28;20045;-69
2022/05/24 04:29:31;;;;;;;9.70;3.10;;;;;;;;;;4944538;28;20031;-69
2022/05/24 04:31:57;;;;;;;4.07;2.47;;;;;;;;;;4955477;28;20444;-69
2022/05/24 04:34:22;;;;;;;4.72;2.30;;;;;;;;;;4944730;28;20031;-68
2022/05/24 04:36:47;;;;;;;2.90;2.20;;;;;;;;;;4944419;28;20828;-68
2022/05/24 04:39:13;;;;;;;5.20;2.20;;;;;;;;;;4944177;28;20404;-68
2022/05/24 04:44:23;;;;;;;4.95;2.13;;;;;;;;;;4951834;28;20027;-69
2022/05/24 04:47:07;;;;;;;3.55;2.42;;;;;;;;;;4948582;28;20046;-68
2022/05/24 04:49:34;;;;;;;3.42;2.20;;;;;;;;;;4944009;28;20035;-69
2022/05/24 04:52:01;;;;;;;5.25;2.42;;;;;;;;;;4944588;28;20047;-69
2022/05/24 04:54:27;;;;;;;4.63;1.98;;;;;;;;;;4945657;28;20066;-68
2022/05/24 04:56:53;;;;;;;4.75;2.53;;;;;;;;;;4950897;28;20086;-69
2022/05/24 04:59:20;;;;;;;3.88;2.42;;;;;;;;;;4950123;28;20046;-68
2022/05/24 05:01:46;;;;;;;6.18;2.50;;;;;;;;;;4947197;28;20285;-68
2022/05/24 05:04:11;;;;;;;7.28;2.35;;;;;;;;;;4948445;28;20154;-68
2022/05/24 05:06:42;;;;;;;6.38;2.95;;;;;;;;;;4953550;28;20055;-69
2022/05/24 05:09:09;;;;;;;7.68;2.20;;;;;;;;;;4953843;28;20459;-68
2022/05/24 05:11:36;;;;;;;4.70;2.47;;;;;;;;;;4944360;28;20051;-69
2022/05/24 05:14:01;;;;;;;3.95;2.42;;;;;;;;;;4944459;28;20046;-68
2022/05/24 05:16:27;;;;;;;6.88;2.45;;;;;;;;;;4941299;28;20038;-68
2022/05/24 05:18:53;;;;;;;3.28;2.45;;;;;;;;;;4949424;28;20027;-68
2022/05/24 05:21:18;;;;;;;5.82;2.60;;;;;;;;;;4941470;28;20142;-68
2022/05/24 05:23:44;;;;;;;6.35;2.15;;;;;;;;;;4947881;28;20039;-68
2022/05/24 05:26:10;;;;;;;4.07;2.50;;;;;;;;;;4944827;28;20075;-68
2022/05/24 05:28:35;;;;;;;6.32;2.22;;;;;;;;;;4952714;28;20051;-68
2022/05/24 05:33:45;;;;;;;9.80;2.70;;;;;;;;;;4942807;28;20039;-68
2022/05/24 05:36:11;;;;;;;6.30;2.35;;;;;;;;;;4945804;28;20035;-68
2022/05/24 05:38:37;;;;;;;5.65;2.47;;;;;;;;;;4950876;28;20066;-68
2022/05/24 05:41:12;;;;;;;4.90;2.00;;;;;;;;;;4951525;28;20054;-70
2022/05/24 05:44:04;;;;;;;5.03;2.28;;;;;;;;;;4948471;28;20047;-68
2022/05/24 05:46:29;;;;;;;4.00;2.33;;;;;;;;;;4948734;28;20921;-67
2022/05/24 05:48:55;;;;;;;5.05;1.88;;;;;;;;;;4952234;28;20112;-68
2022/05/24 05:51:20;;;;;;;4.45;1.90;;;;;;;;;;4954960;28;20066;-67
2022/05/24 05:53:48;;;;;;;5.93;1.95;;;;;;;;;;4955991;28;20050;-68
2022/05/24 05:56:18;;;;;;;5.65;2.00;;;;;;;;;;4951635;28;20031;-67
2022/05/24 05:58:45;;;;;;;3.05;2.00;;;;;;;;;;4946664;28;20051;-67
2022/05/24 06:01:21;;;;;;;2.97;1.90;;;;;;;;;;4955145;28;20397;-67
2022/05/24 06:03:48;;;;;;;4.63;2.20;;;;;;;;;;4950489;28;20090;-67
2022/05/24 06:06:20;;;;;;;5.03;2.10;;;;;;;;;;4954531;28;20593;-68
2022/05/24 06:08:45;;;;;;;3.83;1.90;;;;;;;;;;4946959;28;20436;-67
2022/05/24 06:11:11;;;;;;;5.57;2.15;;;;;;;;;;4929843;28;20035;-68
2022/05/24 06:13:36;;;;;;;4.43;2.10;;;;;;;;;;4933583;28;20039;-67
2022/05/24 06:16:02;;;;;;;7.85;2.50;;;;;;;;;;4950192;28;20088;-67
2022/05/24 06:18:28;;;;;;;3.38;2.25;;;;;;;;;;4951663;28;20118;-67
2022/05/24 06:20:53;;;;;;;4.00;1.90;;;;;;;;;;4931610;28;20873;-67
2022/05/24 06:23:19;;;;;;;4.05;2.22;;;;;;;;;;4954166;28;20097;-67
2022/05/24 06:25:45;;;;;;;7.07;2.25;;;;;;;;;;4951712;28;20536;-68
2022/05/24 06:28:15;;;;;;;3.30;1.80;;;;;;;;;;4949429;28;20043;-68
2022/05/24 06:30:41;;;;;;;4.80;1.85;;;;;;;;;;4951490;28;20042;-69
2022/05/24 06:33:09;;;;;;;3.97;2.00;;;;;;;;;;4952068;28;20040;-68
2022/05/24 06:35:36;;;;;;;2.58;1.92;;;;;;;;;;4950862;28;20046;-68
2022/05/24 06:38:02;;;;;;;3.15;1.65;;;;;;;;;;4948269;28;20085;-71
2022/05/24 06:40:28;;;;;;;4.25;1.98;;;;;;;;;;4955708;28;20090;-70
2022/05/24 06:42:53;;;;;;;4.07;1.80;;;;;;;;;;4959721;28;20034;-71
2022/05/24 06:45:19;;;;;;;5.40;2.15;;;;;;;;;;4959945;28;20043;-70
2022/05/24 06:47:45;;;;;;;3.65;1.52;;;;;;;;;;4947490;28;20123;-70
2022/05/24 06:50:12;;;;;;;4.22;2.05;;;;;;;;;;4957612;28;20066;-70
2022/05/24 06:52:41;;;;;;;4.57;1.40;;;;;;;;;;4951769;28;20042;-69
2022/05/24 06:55:08;;;;;;;2.55;1.35;;;;;;;;;;4952986;28;20035;-69
2022/05/24 06:57:34;;;;;;;1.92;1.30;;;;;;;;;;4945913;28;20031;-69
2022/05/24 07:03:39;;;;;;;4.68;2.42;;;;;;;;;;5077879;27;20363;-68
2022/05/24 07:06:05;;;;;;;5.72;1.48;;;;;;;;;;5077363;28;20036;-69
2022/05/24 07:08:30;;;;;;;1.35;1.25;;;;;;;;;;5077981;28;20278;-69
2022/05/24 07:10:56;;;;;;;2.03;1.50;;;;;;;;;;5077086;28;20140;-69
2022/05/24 07:13:21;;;;;;;3.92;1.63;;;;;;;;;;5083537;28;20031;-69
2022/05/24 07:19:16;;;;;;;1.85;1.30;;;;;;;;;;5121295;27;20358;-70
2022/05/24 07:21:42;;;;;;;2.67;1.50;;;;;;;;;;5125053;28;20426;-70
2022/05/24 07:24:07;;;;;;;2.90;1.52;;;;;;;;;;5126107;28;20043;-70
2022/05/24 07:26:32;;;;;;;3.90;1.65;;;;;;;;;;5123413;28;20088;-71
2022/05/24 07:28:58;;;;;;;6.25;1.63;;;;;;;;;;5118735;27;20039;-70
2022/05/24 07:31:23;;;;;;;2.22;1.40;;;;;;;;;;5118766;28;20039;-70
2022/05/24 07:33:48;;;;;;;3.30;1.40;;;;;;;;;;5121632;28;20047;-71
2022/05/24 07:36:14;;;;;;;3.67;1.85;;;;;;;;;;5123297;27;20034;-70
2022/05/24 07:38:39;;;;;;;1.70;1.33;;;;;;;;;;5116896;27;20027;-71
2022/05/24 07:46:33;;;;;;;2.83;1.45;;;;;;;;;;5119057;28;20023;-69
2022/05/24 07:48:59;;;;;;;2.30;1.55;;;;;;;;;;5120658;27;20491;-71
2022/05/24 07:51:25;;;;;;;5.75;2.03;;;;;;;;;;5122801;27;20035;-71
2022/05/24 07:53:50;;;;;;;3.33;1.75;;;;;;;;;;5122236;27;20050;-71
2022/05/24 07:56:18;;;;;;;2.35;1.33;;;;;;;;;;5121407;27;20050;-69
2022/05/24 07:58:44;;;;;;;3.42;1.50;;;;;;;;;;5119526;28;20392;-69
2022/05/24 08:01:10;;;;;;;3.03;1.60;;;;;;;;;;5118225;27;20479;-71
2022/05/24 08:03:36;;;;;;;7.40;1.70;;;;;;;;;;5122394;27;20038;-72
2022/05/24 08:06:02;;;;;;;9.00;1.77;;;;;;;;;;5124114;27;20043;-71
2022/05/24 08:08:27;;;;;;;3.85;1.95;;;;;;;;;;5118857;27;20039;-71
2022/05/24 08:10:53;;;;;;;6.47;2.35;;;;;;;;;;5117342;27;20812;-72
2022/05/24 08:13:19;;;;;;;3.83;2.00;;;;;;;;;;5116816;28;20035;-72
2022/05/24 08:15:46;;;;;;;7.45;2.33;;;;;;;;;;5119369;27;20031;-72
2022/05/24 08:21:36;;;;;;;5.68;2.10;;;;;;;;;;5078863;27;20366;-71
2022/05/24 08:24:01;;;;;;;5.00;1.83;;;;;;;;;;5084386;28;20851;-71
2022/05/24 08:26:26;;;;;;;8.13;6.82;;;;;;;;;;5081694;28;20455;-71
2022/05/24 08:28:52;;;;;;;2.78;2.10;;;;;;;;;;5082467;28;20492;-71
2022/05/24 08:31:19;;;;;;;4.47;2.38;;;;;;;;;;5082506;28;20036;-71
2022/05/24 08:33:46;;;;;;;2.63;2.42;;;;;;;;;;5076381;28;20094;-71
2022/05/24 08:36:12;;;;;;;5.30;2.20;;;;;;;;;;5083789;28;20043;-71
2022/05/24 08:38:39;;;;;;;1.85;1.52;;;;;;;;;;5084024;28;20040;-71
2022/05/24 08:41:10;;;;;;;6.05;2.38;;;;;;;;;;5084688;28;20081;-70
2022/05/24 08:43:58;;;;;;;3.78;2.20;;;;;;;;;;5084487;28;20046;-70
2022/05/24 08:49:17;;;;;;;2.97;2.05;;;;;;;;;;5080154;28;20190;-71
2022/05/24 08:51:49;;;;;;;3.90;1.77;;;;;;;;;;5077760;28;21165;-70
2022/05/24 08:54:19;;;;;;;3.00;1.92;;;;;;;;;;5076527;28;20123;-70
2022/05/24 08:56:49;;;;;;;2.80;1.70;;;;;;;;;;5078499;28;20040;-70
2022/05/24 08:59:26;;;;;;;1.88;1.75;;;;;;;;;;5079393;28;20036;-69
2022/05/24 09:01:52;;;;;;;3.72;2.38;;;;;;;;;;5083124;28;20119;-69
2022/05/24 09:04:18;;;;;;;3.85;2.00;;;;;;;;;;5084469;28;20173;-69
2022/05/24 09:06:51;;;;;;;2.53;2.05;;;;;;;;;;5083307;28;20051;-69
2022/05/24 09:09:32;;;;;;;4.60;1.95;;;;;;;;;;5082663;28;20051;-69
2022/05/24 09:12:07;;;;;;;3.33;1.73;;;;;;;;;;5080451;28;20446;-69
2022/05/24 09:15:04;;;;;;;3.65;2.25;;;;;;;;;;5080836;28;20064;-69
2022/05/24 09:17:46;;;;;;;3.28;2.05;;;;;;;;;;5083442;28;20032;-69
2022/05/24 09:20:24;;;;;;;4.50;2.10;;;;;;;;;;5094148;28;20039;-69
2022/05/24 09:22:53;;;;;;;4.40;2.25;;;;;;;;;;5099304;28;20040;-69
2022/05/24 09:25:19;;;;;;;5.88;2.40;;;;;;;;;;5099850;28;20019;-69
2022/05/24 09:27:53;;;;;;;6.72;2.33;;;;;;;;;;5085107;28;20040;-69
2022/05/24 09:30:25;;;;;;;4.43;1.92;;;;;;;;;;5102561;28;20404;-69
2022/05/24 09:32:50;;;;;;;2.67;2.15;;;;;;;;;;5070916;28;20051;-69
2022/05/24 09:35:16;;;;;;;4.05;2.30;;;;;;;;;;5086230;28;20032;-69
2022/05/24 09:38:03;;;;;;;3.35;1.88;;;;;;;;;;5083577;28;20060;-69
2022/05/24 09:40:31;;;;;;;3.47;2.20;;;;;;;;;;5082180;28;20028;-69
2022/05/24 09:43:16;;;;;;;5.00;2.30;;;;;;;;;;5081943;28;20070;-69
2022/05/24 09:45:46;;;;;;;3.45;1.75;;;;;;;;;;5082783;28;20036;-72
2022/05/24 09:48:23;;;;;;;3.90;1.85;;;;;;;;;;5084356;28;20416;-70
2022/05/24 09:50:53;;;;;;;4.45;2.53;;;;;;;;;;5064172;28;20035;-71
2022/05/24 09:53:28;;;;;;;5.05;1.90;;;;;;;;;;5081508;28;20027;-70
2022/05/24 09:56:03;;;;;;;6.00;2.22;;;;;;;;;;5081839;28;20138;-70
2022/05/24 09:58:55;;;;;;;1.90;1.70;;;;;;;;;;5081183;28;20040;-70
2022/05/24 10:01:43;;;;;;;3.00;1.75;;;;;;;;;;5080584;28;20177;-70
2022/05/24 10:04:33;;;;;;;6.55;2.05;;;;;;;;;;5080742;28;20039;-70
2022/05/24 10:07:22;;;;;;;3.88;1.50;;;;;;;;;;5081199;28;20082;-70
2022/05/24 10:10:14;;;;;;;2.67;1.63;;;;;;;;;;5080681;28;20031;-70
2022/05/24 10:12:58;;;;;;;2.80;1.73;;;;;;;;;;5081707;28;20512;-70
2022/05/24 10:15:39;;;;;;;4.55;1.73;;;;;;;;;;5081988;28;20488;-70
2022/05/24 10:18:28;;;;;;;4.32;1.83;;;;;;;;;;5082502;28;20036;-70
2022/05/24 10:21:22;;;;;;;6.07;1.90;;;;;;;;;;5082370;28;20465;-70
2022/05/24 10:24:14;;;;;;;4.63;1.75;;;;;;;;;;5081550;28;20032;-70
2022/05/24 10:26:48;;;;;;;2.15;1.73;;;;;;;;;;5080972;28;20047;-70
2022/05/24 10:29:52;;;;;;;4.10;1.90;;;;;;;;;;5081926;28;20043;-70
2022/05/24 10:38:42;;;;;;;1.45;1.33;;;;;;;;;;5081594;28;20067;-70
2022/05/24 10:41:12;;;;;;;5.22;1.48;;;;;;;;;;4965804;28;20763;-70
2022/05/24 10:43:53;;;;;;;1.33;1.08;;;;;;;;;;5067743;28;20075;-70
2022/05/24 10:46:43;;;;;;;3.70;1.48;;;;;;;;;;5081129;28;20044;-70
2022/05/24 10:49:16;;;;;;;2.38;1.30;;;;;;;;;;5080396;28;20531;-70
2022/05/24 10:51:48;;;;;;;2.50;1.20;;;;;;;;;;5081397;28;20032;-70
2022/05/24 10:54:29;;;;;;;3.97;1.40;;;;;;;;;;5081474;28;20103;-69
2022/05/24 10:57:12;;;;;;;2.15;1.20;;;;;;;;;;5079928;28;20040;-69
2022/05/24 10:59:50;;;;;;;3.35;1.38;;;;;;;;;;5079537;28;20051;-69
2022/05/24 11:02:33;;;;;;;2.88;1.40;;;;;;;;;;5081240;28;20238;-69
2022/05/24 11:04:58;;;;;;;4.85;1.60;;;;;;;;;;5080801;28;20032;-69
2022/05/24 11:07:26;;;;;;;1.10;1.02;;;;;;;;;;5077527;28;20113;-69
2022/05/24 11:10:20;;;;;;;1.10;1.08;;;;;;;;;;5079439;28;20032;-69
2022/05/24 11:12:52;;;;;;;4.40;1.30;;;;;;;;;;5080685;28;20036;-70
2022/05/24 11:15:32;;;;;;;2.00;1.35;;;;;;;;;;5080124;28;20047;-69
2022/05/24 11:18:02;;;;;;;4.38;1.25;;;;;;;;;;5079329;28;20052;-69
2022/05/24 11:20:41;;;;;;;6.07;1.40;;;;;;;;;;5078893;28;20047;-69
2022/05/24 11:23:25;;;;;;;2.30;1.50;;;;;;;;;;5080444;28;20089;-69
2022/05/24 11:25:55;;;;;;;3.00;1.33;;;;;;;;;;5080943;28;20039;-69
2022/05/24 11:28:50;;;;;;;1.35;1.23;;;;;;;;;;5079366;28;20379;-69
2022/05/24 11:31:40;;;;;;;4.80;1.33;;;;;;;;;;5069530;28;20043;-70
2022/05/24 11:34:18;;;;;;;33.20;6.70;;;;;;;;;;5080492;28;20032;-72
2022/05/24 11:37:13;;;;;;;1.27;1.05;;;;;;;;;;5079772;28;20468;-69
2022/05/24 11:39:42;;;;;;;3.15;1.08;;;;;;;;;;5066441;28;20489;-70
2022/05/24 11:42:25;;;;;;;3.05;1.02;;;;;;;;;;5078497;28;20587;-70
2022/05/24 11:44:57;;;;;;;1.45;1.15;;;;;;;;;;5080165;28;20113;-69
2022/05/24 11:47:34;;;;;;;1.02;1.00;;;;;;;;;;5080514;28;20039;-69
2022/05/24 11:50:30;;;;;;;5.00;1.25;;;;;;;;;;5080089;28;20032;-69
2022/05/24 11:53:08;;;;;;;2.53;1.52;;;;;;;;;;5080036;28;20803;-69
2022/05/24 11:55:38;;;;;;;2.50;1.40;;;;;;;;;;5080647;28;20492;-70
2022/05/24 11:58:24;;;;;;;2.67;1.20;;;;;;;;;;5066162;28;20035;-70
2022/05/24 12:01:04;;;;;;;3.70;1.20;;;;;;;;;;5080758;28;20036;-66
2022/05/24 12:09:22;;;;;;;2.75;1.30;;;;;;;;;;5079013;28;20043;-69
2022/05/24 12:11:48;;;;;;;5.93;1.50;;;;;;;;;;5079145;28;20037;-69
2022/05/24 12:14:19;;;;;;;1.30;1.17;;;;;;;;;;5077183;28;20028;-68
2022/05/24 12:17:07;;;;;;;3.72;1.35;;;;;;;;;;5077361;28;20039;-69
2022/05/24 12:19:32;;;;;;;1.35;1.00;;;;;;;;;;5076999;28;20044;-68
2022/05/24 12:22:06;;;;;;;2.58;1.35;;;;;;;;;;5079071;28;20040;-69
2022/05/24 12:24:40;;;;;;;6.00;1.50;;;;;;;;;;5077709;28;20050;-68
2022/05/24 12:27:24;;;;;;;2.00;1.45;;;;;;;;;;5078963;28;20089;-69
2022/05/24 12:30:12;;;;;;;1.77;1.30;;;;;;;;;;5079911;28;20173;-69
2022/05/24 12:32:39;;;;;;;2.30;1.70;;;;;;;;;;5080765;28;20039;-69
2022/05/24 12:35:08;;;;;;;2.58;1.30;;;;;;;;;;5079015;28;20028;-69
2022/05/24 12:37:38;;;;;;;2.55;1.30;;;;;;;;;;5080418;28;20081;-69
2022/05/24 12:40:19;;;;;;;2.25;1.20;;;;;;;;;;5079557;28;20085;-69
2022/05/24 12:42:55;;;;;;;5.60;1.52;;;;;;;;;;5076308;28;20035;-69
2022/05/24 12:45:26;;;;;;;2.78;1.52;;;;;;;;;;5058684;28;20028;-69
2022/05/24 12:47:53;;;;;;;3.95;1.80;;;;;;;;;;5076781;28;20078;-69
2022/05/24 12:50:35;;;;;;;3.55;1.83;;;;;;;;;;5077512;28;20040;-69
2022/05/24 12:53:08;;;;;;;3.22;1.85;;;;;;;;;;5078593;28;20120;-69
2022/05/24 12:58:34;;;;;;;2.97;1.85;;;;;;;;;;5077661;28;20039;-69
2022/05/24 13:01:22;;;;;;;5.55;1.90;;;;;;;;;;5048241;28;20370;-69
2022/05/24 13:04:15;;;;;;;5.63;1.90;;;;;;;;;;5032356;28;20134;-69
2022/05/24 13:06:54;;;;;;;5.07;2.10;;;;;;;;;;5060491;28;20154;-69
2022/05/24 13:09:32;;;;;;;2.65;2.20;;;;;;;;;;5080249;28;20035;-69
2022/05/24 13:12:04;;;;;;;3.35;2.03;;;;;;;;;;5083353;28;20115;-69
2022/05/24 13:14:48;;;;;;;2.17;1.83;;;;;;;;;;5082942;28;20050;-69
2022/05/24 13:17:17;;;;;;;4.55;2.25;;;;;;;;;;5082250;28;20028;-69
2022/05/24 13:20:03;;;;;;;4.85;1.35;;;;;;;;;;5081447;28;20047;-69
2022/05/24 13:22:40;;;;;;;0.88;0.70;;;;;;;;;;5082908;28;20054;-69
2022/05/24 13:25:27;;;;;;;7.97;0.90;;;;;;;;;;5083016;28;20031;-69
2022/05/24 13:27:52;;;;;;;1.38;1.20;;;;;;;;;;5082172;28;20412;-69
2022/05/24 13:33:34;;;;;;;1.23;0.60;;;;;;;;;;5081467;28;20050;-69
2022/05/24 13:36:21;;;;;;;0.75;0.70;;;;;;;;;;5082050;28;20476;-69
2022/05/24 13:39:03;;;;;;;1.85;0.70;;;;;;;;;;5063941;28;20097;-69
2022/05/24 13:42:07;;;;;;;2.75;0.80;;;;;;;;;;5082254;28;20093;-69
2022/05/24 13:44:35;;;;;;;2.25;1.00;;;;;;;;;;5078327;28;20059;-69
2022/05/24 13:47:23;;;;;;;0.60;0.60;;;;;;;;;;5082360;28;20028;-69
2022/05/24 13:49:50;;;;;;;0.80;0.80;;;;;;;;;;5081616;28;20071;-69
2022/05/24 13:52:25;;;;;;;3.60;1.08;;;;;;;;;;5081802;28;20023;-69
2022/05/24 13:54:53;;;;;;;1.27;1.17;;;;;;;;;;5082509;28;20075;-69
2022/05/24 13:57:29;;;;;;;2.90;1.00;;;;;;;;;;5082389;28;20112;-69
2022/05/24 14:00:10;;;;;;;2.83;1.30;;;;;;;;;;5081622;28;20039;-69
2022/05/24 14:02:41;;;;;;;1.35;1.17;;;;;;;;;;5081510;28;20036;-69
2022/05/24 14:05:07;;;;;;;3.78;1.20;;;;;;;;;;5081659;28;20043;-69
2022/05/24 14:07:32;;;;;;;2.00;1.80;;;;;;;;;;5082343;28;20043;-69
2022/05/24 14:09:58;;;;;;;1.30;1.20;;;;;;;;;;5081291;28;20060;-69
2022/05/24 14:12:25;;;;;;;4.35;1.42;;;;;;;;;;5082655;28;20121;-69
2022/05/24 14:14:50;;;;;;;3.55;2.58;;;;;;;;;;5081098;28;20122;-69
2022/05/24 14:17:16;;;;;;;1.33;1.23;;;;;;;;;;5082574;28;20032;-69
2022/05/24 14:19:42;;;;;;;4.85;1.30;;;;;;;;;;5081908;28;20477;-69
2022/05/24 14:22:08;;;;;;;1.05;0.98;;;;;;;;;;5081048;28;20651;-69
2022/05/24 14:24:40;;;;;;;6.53;1.10;;;;;;;;;;5081505;28;20046;-69
2022/05/24 14:27:08;;;;;;;1.08;1.08;;;;;;;;;;5081848;28;20440;-69
2022/05/24 14:29:34;;;;;;;3.25;1.33;;;;;;;;;;5081187;28;20035;-69
2022/05/24 14:32:00;;;;;;;2.75;1.23;;;;;;;;;;5080761;28;20031;-69
2022/05/24 14:34:26;;;;;;;0.93;0.93;;;;;;;;;;5081866;28;20115;-69
2022/05/24 14:36:53;;;;;;;1.27;1.17;;;;;;;;;;5080902;28;20038;-72
2022/05/24 14:39:21;;;;;;;0.90;0.90;;;;;;;;;;5079886;28;20684;-73
2022/05/24 14:41:49;;;;;;;1.40;1.30;;;;;;;;;;5079891;28;21010;-69
2022/05/24 14:44:20;;;;;;;4.68;1.42;;;;;;;;;;5080403;28;20461;-70
2022/05/24 14:46:46;;;;;;;1.20;1.10;;;;;;;;;;5079280;28;20707;-71
2022/05/24 14:49:11;;;;;;;1.10;1.00;;;;;;;;;;5079179;28;20031;-71
2022/05/24 14:51:43;;;;;;;0.90;0.90;;;;;;;;;;5080636;28;20078;-70
2022/05/24 14:54:08;;;;;;;2.38;1.33;;;;;;;;;;5080371;28;20476;-70
2022/05/24 14:56:38;;;;;;;3.15;1.30;;;;;;;;;;5078065;28;20043;-71
2022/05/24 14:59:05;;;;;;;1.20;1.10;;;;;;;;;;5079877;28;20108;-71
2022/05/24 15:01:30;;;;;;;1.45;1.13;;;;;;;;;;5081044;28;20039;-70
2022/05/24 15:03:56;;;;;;;1.55;1.20;;;;;;;;;;5080985;28;20036;-71
2022/05/24 15:06:22;;;;;;;1.23;1.15;;;;;;;;;;5078656;28;20032;-70
2022/05/24 15:17:03;;;;;;;1.98;1.77;;;;;;;;;;5079735;28;20039;-69
2022/05/24 15:19:29;;;;;;;1.98;1.30;;;;;;;;;;5078238;28;20028;-70
2022/05/24 15:21:57;;;;;;;2.13;1.95;;;;;;;;;;5080491;28;20032;-70
2022/05/24 15:24:28;;;;;;;5.53;1.50;;;;;;;;;;5079065;28;20036;-69
2022/05/24 15:26:58;;;;;;;2.20;2.00;;;;;;;;;;5079532;28;20031;-70
2022/05/24 15:29:23;;;;;;;1.92;1.77;;;;;;;;;;5078193;28;20146;-69
2022/05/24 15:31:50;;;;;;;1.67;1.50;;;;;;;;;;5060126;28;20143;-69
2022/05/24 15:34:15;;;;;;;2.72;1.48;;;;;;;;;;5079876;28;20039;-69
2022/05/24 15:36:41;;;;;;;6.03;2.05;;;;;;;;;;5079337;28;20036;-69
2022/05/24 15:39:07;;;;;;;1.85;1.70;;;;;;;;;;5079536;28;20028;-69
2022/05/24 15:41:36;;;;;;;2.20;2.05;;;;;;;;;;5078051;28;20098;-69
2022/05/24 15:44:03;;;;;;;4.88;2.10;;;;;;;;;;5079175;28;20043;-70
2022/05/24 15:46:29;;;;;;;5.53;1.92;;;;;;;;;;5078584;28;20417;-69
2022/05/24 15:48:55;;;;;;;2.67;2.10;;;;;;;;;;5079382;28;20044;-68
2022/05/24 15:51:21;;;;;;;3.50;2.00;;;;;;;;;;5079663;28;20044;-68
2022/05/24 15:53:47;;;;;;;5.00;2.28;;;;;;;;;;5079288;28;20045;-68
2022/05/24 15:56:13;;;;;;;2.38;2.17;;;;;;;;;;5078536;28;21488;-68
2022/05/24 15:58:40;;;;;;;3.78;2.08;;;;;;;;;;5079526;28;20036;-68
2022/05/24 16:01:07;;;;;;;6.07;2.20;;;;;;;;;;5079267;28;20472;-68
2022/05/24 16:03:34;;;;;;;2.13;1.98;;;;;;;;;;5078764;28;20051;-68
2022/05/24 16:11:31;;;;;;;2.70;2.20;;;;;;;;;;5078710;28;20039;-71
2022/05/24 16:14:03;;;;;;;4.82;2.00;;;;;;;;;;5079453;28;20063;-71